Time;durP1;ratioP1;P1;durP2;ratioP2;P2;SDS_P1;SDS_P2;PMS_P1;PMS_P2;Temp;Humidity;BMP_temperature;BMP_pressure;BME280_temperature;BME280_humidity;BME280_pressure;Samples;Min_cycle;Max_cycle;Signal;HPM_P1;HPM_P2
2022/01/22 00:02:10;;;;;;;13.77;3.00;;;;;;;2.19;58.68;99663.59;5092101;28;20112;-92
2022/01/22 00:04:36;;;;;;;6.80;3.08;;;;;;;2.20;58.37;99670.59;5092577;28;20043;-94
2022/01/22 00:07:04;;;;;;;5.25;3.30;;;;;;;2.16;57.87;99655.63;5092941;28;20066;-93
2022/01/22 00:09:38;;;;;;;9.07;3.78;;;;;;;2.23;58.45;99689.03;5092004;28;20131;-93
2022/01/22 00:12:08;;;;;;;6.82;3.28;;;;;;;2.26;57.58;99680.34;5092736;28;20037;-92
2022/01/22 00:14:34;;;;;;;8.07;2.90;;;;;;;2.07;57.96;99657.19;5092551;28;20044;-94
2022/01/22 00:17:01;;;;;;;6.75;2.88;;;;;;;2.12;57.36;99652.91;5092365;28;20068;-93
2022/01/22 00:19:28;;;;;;;5.68;2.80;;;;;;;2.12;57.68;99659.03;5092928;28;20041;-94
2022/01/22 00:21:55;;;;;;;5.40;2.45;;;;;;;2.14;57.11;99659.09;5093086;28;20051;-93
2022/01/22 00:24:20;;;;;;;8.82;2.63;;;;;;;2.22;56.80;99668.88;5092480;28;20515;-91
2022/01/22 00:26:50;;;;;;;6.18;2.90;;;;;;;2.24;56.86;99663.69;5092677;28;20127;-94
2022/01/22 00:29:16;;;;;;;6.18;2.85;;;;;;;2.21;56.63;99658.34;5092713;28;20055;-93
2022/01/22 00:31:42;;;;;;;7.32;2.72;;;;;;;2.14;57.30;99654.72;5092235;28;20509;-93
2022/01/22 00:34:11;;;;;;;6.57;3.08;;;;;;;2.12;56.82;99648.53;5092231;28;20044;-93
2022/01/22 00:36:37;;;;;;;6.13;2.97;;;;;;;2.25;56.21;99657.56;5092102;28;20043;-93
2022/01/22 00:39:03;;;;;;;8.77;3.00;;;;;;;2.20;56.18;99669.72;5092555;28;20036;-93
2022/01/22 00:41:29;;;;;;;6.63;3.20;;;;;;;2.41;55.70;99685.03;5092150;28;20044;-92
2022/01/22 00:43:58;;;;;;;5.82;2.83;;;;;;;2.23;55.64;99654.03;5092260;28;20041;-93
2022/01/22 00:46:24;;;;;;;4.50;2.40;;;;;;;2.29;55.55;99661.16;5092088;28;20063;-92
2022/01/22 00:48:50;;;;;;;5.47;2.83;;;;;;;2.25;55.41;99674.19;5091443;28;20048;-92
2022/01/22 00:51:17;;;;;;;5.72;2.50;;;;;;;2.35;55.88;99695.41;5091461;28;20060;-92
2022/01/22 00:53:44;;;;;;;5.68;2.60;;;;;;;2.28;55.85;99694.38;5092462;28;20074;-93
2022/01/22 00:56:11;;;;;;;4.55;2.75;;;;;;;2.20;55.92;99677.59;5093150;28;20406;-94
2022/01/22 00:58:38;;;;;;;5.07;2.80;;;;;;;2.31;55.78;99689.19;5092641;28;20048;-94
2022/01/22 01:01:05;;;;;;;5.38;2.92;;;;;;;2.13;55.82;99662.56;5092281;28;20624;-94
2022/01/22 01:03:33;;;;;;;5.80;2.63;;;;;;;2.12;55.52;99661.66;5079528;28;20094;-95
2022/01/22 01:05:59;;;;;;;4.65;2.60;;;;;;;2.12;55.64;99671.28;5078488;28;20089;-93
2022/01/22 01:08:27;;;;;;;4.75;2.50;;;;;;;2.14;55.91;99678.31;5077256;28;20090;-95
2022/01/22 01:10:53;;;;;;;5.38;2.63;;;;;;;2.12;56.37;99673.91;5077706;28;20047;-93
2022/01/22 01:13:20;;;;;;;4.15;2.42;;;;;;;1.99;56.00;99647.41;5078138;28;20048;-93
2022/01/22 01:34:00;;;;;;;5.50;2.60;;;;;;;2.28;55.60;99689.13;5109114;27;20385;-92
2022/01/22 01:36:26;;;;;;;4.13;2.78;;;;;;;2.15;56.42;99676.63;5092709;28;20079;-93
2022/01/22 01:38:56;;;;;;;4.35;2.30;;;;;;;1.92;56.42;99626.28;5092965;28;20044;-94
2022/01/22 01:41:35;;;;;;;4.43;2.72;;;;;;;2.15;56.10;99645.13;5089049;28;20040;-94
2022/01/22 01:44:01;;;;;;;5.50;2.83;;;;;;;2.16;55.73;99634.66;5077195;28;20064;-94
2022/01/22 01:46:30;;;;;;;6.68;2.80;;;;;;;2.23;56.09;99660.19;5092505;28;20417;-93
2022/01/22 01:48:58;;;;;;;5.72;2.40;;;;;;;2.20;55.52;99631.22;5093089;28;20466;-91
2022/01/22 01:51:30;;;;;;;6.50;2.90;;;;;;;2.22;55.83;99637.41;5087709;28;20041;-94
2022/01/22 01:54:11;;;;;;;4.40;2.50;;;;;;;2.26;55.92;99651.47;5072484;28;20044;-93
2022/01/22 01:59:37;;;;;;;5.40;2.65;;;;;;;2.31;55.89;99643.69;5114242;27;20377;-92
2022/01/22 02:02:04;;;;;;;6.63;3.08;;;;;;;2.33;56.01;99661.22;5113031;28;20044;-94
2022/01/22 02:04:30;;;;;;;6.90;2.60;;;;;;;2.25;56.33;99647.94;5113436;28;20180;-93
2022/01/22 02:06:56;;;;;;;4.90;2.70;;;;;;;2.14;56.37;99633.72;5113606;28;20051;-93
2022/01/22 02:09:25;;;;;;;6.20;3.17;;;;;;;2.38;56.40;99666.56;5113457;28;20489;-92
2022/01/22 02:12:02;;;;;;;5.38;2.80;;;;;;;2.22;56.33;99636.53;5114132;28;20358;-93
2022/01/22 02:26:16;;;;;;;5.65;2.72;;;;;;;2.00;57.78;99671.91;5092942;27;20393;-94
2022/01/22 02:28:48;;;;;;;5.63;2.92;;;;;;;1.81;58.35;99650.53;5093684;28;20049;-94
2022/01/22 02:37:24;;;;;;;6.60;3.00;;;;;;;1.68;58.71;99647.59;5134222;27;20379;-94
2022/01/22 02:40:02;;;;;;;6.38;3.10;;;;;;;1.64;59.12;99644.00;5134643;27;20071;-94
2022/01/22 02:42:31;;;;;;;6.90;2.72;;;;;;;1.59;58.74;99633.44;5134464;27;20039;-94
2022/01/22 02:44:57;;;;;;;8.25;3.22;;;;;;;1.56;59.48;99624.59;5125652;27;20044;-93
2022/01/22 02:47:23;;;;;;;5.03;2.80;;;;;;;1.61;59.51;99634.34;5116179;28;20078;-95
2022/01/22 02:49:49;;;;;;;7.15;2.85;;;;;;;1.69;59.62;99665.97;5113721;28;20066;-94
2022/01/22 02:52:19;;;;;;;6.53;3.50;;;;;;;1.66;59.61;99663.28;5113653;28;20035;-95
2022/01/22 02:54:47;;;;;;;8.82;3.47;;;;;;;1.72;60.12;99666.06;5112999;28;20044;-92
2022/01/22 02:57:13;;;;;;;5.88;2.83;;;;;;;1.63;60.48;99651.00;5128873;28;20047;-93
2022/01/22 02:59:40;;;;;;;6.20;3.35;;;;;;;1.63;60.67;99656.25;5134460;27;20047;-93
2022/01/22 03:02:13;;;;;;;7.25;2.92;;;;;;;1.67;60.08;99631.00;5116451;27;20063;-94
2022/01/22 03:04:39;;;;;;;5.75;2.70;;;;;;;1.89;59.31;99648.06;5114611;28;20044;-92
2022/01/22 03:07:10;;;;;;;5.38;3.00;;;;;;;1.76;59.85;99631.19;5119201;27;20074;-93
2022/01/22 03:09:42;;;;;;;6.05;2.78;;;;;;;1.78;60.29;99645.22;5124534;27;20109;-92
2022/01/22 03:18:08;;;;;;;7.05;3.13;;;;;;;1.64;61.48;99659.75;5159855;27;20368;-94
2022/01/22 03:20:44;;;;;;;5.78;3.03;;;;;;;1.58;61.48;99647.41;5134286;27;20046;-93
2022/01/22 03:29:17;;;;;;;5.85;2.85;;;;;;;1.53;62.98;99682.19;5113545;27;20707;-93
2022/01/22 03:31:44;;;;;;;6.30;3.15;;;;;;;1.38;62.79;99653.88;5113174;28;20131;-94
2022/01/22 03:34:14;;;;;;;6.55;2.97;;;;;;;1.33;63.10;99650.28;5112842;28;20042;-93
2022/01/22 03:36:40;;;;;;;5.00;2.47;;;;;;;1.41;63.66;99680.16;5113102;28;20564;-94
2022/01/22 03:39:08;;;;;;;6.57;3.15;;;;;;;1.42;62.68;99659.22;5113080;28;20118;-93
2022/01/22 03:41:35;;;;;;;7.45;3.05;;;;;;;1.37;62.72;99650.38;5113018;28;20382;-93
2022/01/22 03:44:05;;;;;;;7.90;3.08;;;;;;;1.44;63.08;99670.66;5113491;28;20051;-94
2022/01/22 03:46:33;;;;;;;6.25;3.13;;;;;;;1.52;63.13;99688.28;5113160;28;20048;-94
2022/01/22 03:49:01;;;;;;;7.60;3.38;;;;;;;1.28;63.85;99668.53;5113804;28;20036;-92
2022/01/22 03:51:27;;;;;;;8.52;3.40;;;;;;;1.39;64.06;99684.50;5112927;28;20051;-93
2022/01/22 03:53:52;;;;;;;5.20;2.83;;;;;;;1.33;64.06;99679.13;5113328;28;20040;-94
2022/01/22 03:56:19;;;;;;;4.53;2.88;;;;;;;1.47;63.96;99685.56;5113577;28;20126;-94
2022/01/22 03:58:46;;;;;;;5.93;3.00;;;;;;;1.30;63.94;99658.97;5113394;28;20066;-93
2022/01/22 04:04:14;;;;;;;4.60;2.65;;;;;;;1.50;62.66;99669.03;5167995;27;20324;-93
2022/01/22 04:09:40;;;;;;;7.95;2.80;;;;;;;1.49;62.85;99688.22;5109808;27;20575;-92
2022/01/22 04:12:11;;;;;;;7.25;3.00;;;;;;;1.42;63.28;99693.31;5093321;28;20056;-95
2022/01/22 04:14:44;;;;;;;5.60;2.75;;;;;;;1.39;62.90;99690.63;5092880;28;20047;-93
2022/01/22 04:36:26;;;;;;;5.07;2.42;;;;;;;1.49;61.54;99694.34;6228767;22;1410183;-95
2022/01/22 04:38:52;;;;;;;5.13;2.70;;;;;;;1.29;61.99;99675.50;6288422;22;20454;-93
2022/01/22 04:41:20;;;;;;;5.55;2.63;;;;;;;1.27;61.62;99671.09;6288373;22;20023;-92
2022/01/22 04:43:56;;;;;;;6.63;2.95;;;;;;;1.35;61.66;99696.63;6288940;22;20042;-93
2022/01/22 04:46:37;;;;;;;4.32;2.95;;;;;;;1.29;62.73;99717.44;6288616;22;20020;-92
2022/01/22 04:49:13;;;;;;;6.33;2.83;;;;;;;1.11;62.14;99683.81;6289092;22;20058;-92
2022/01/22 04:57:30;;;;;;;5.95;2.85;;;;;;;0.61;67.99;99713.03;5134407;27;20395;-93
2022/01/22 04:59:59;;;;;;;6.88;3.60;;;;;;;0.35;69.46;99721.88;5134287;27;20039;-93
2022/01/22 05:02:28;;;;;;;8.93;3.72;;;;;;;0.03;72.01;99721.81;5134832;27;20040;-92
2022/01/22 05:04:54;;;;;;;8.85;4.22;;;;;;;0.03;72.82;99750.56;5134509;27;20100;-92
2022/01/22 05:07:20;;;;;;;8.50;3.55;;;;;;;-0.31;73.97;99744.28;5133930;27;20039;-94
2022/01/22 05:09:46;;;;;;;8.23;4.68;;;;;;;-0.55;75.51;99738.25;5134791;27;20171;-92
2022/01/22 05:12:12;;;;;;;7.63;3.97;;;;;;;-0.54;76.43;99750.47;5134095;27;20058;-94
2022/01/22 05:14:39;;;;;;;7.78;3.53;;;;;;;-0.64;76.79;99752.78;5122328;27;20035;-93
2022/01/22 05:17:09;;;;;;;6.50;3.22;;;;;;;-0.84;76.34;99740.78;5113109;28;20123;-94
2022/01/22 05:22:47;;;;;;;4.82;2.50;;;;;;;-0.90;75.28;99754.50;5134103;27;20364;-92
2022/01/22 05:25:21;;;;;;;5.53;2.45;;;;;;;-1.03;74.96;99747.09;5134081;28;20096;-93
2022/01/22 05:30:57;;;;;;;4.10;2.45;;;;;;;-0.94;74.90;99763.06;5105561;27;20390;-92
2022/01/22 05:49:51;;;;;;;14.20;3.38;;;;;;;-1.72;79.96;99753.28;6235963;22;1397663;-92
2022/01/22 05:52:32;;;;;;;6.40;2.92;;;;;;;-1.78;80.69;99752.19;6288791;22;20019;-94
2022/01/22 05:55:24;;;;;;;6.75;3.08;;;;;;;-1.42;79.93;99767.44;6288471;22;20016;-93
2022/01/22 06:00:48;;;;;;;6.60;3.55;;;;;;;-1.66;81.16;99760.47;5134368;27;20375;-91
2022/01/22 06:03:14;;;;;;;5.75;3.50;;;;;;;-1.77;82.09;99772.22;5133477;28;20035;-92
2022/01/22 06:05:40;;;;;;;5.13;3.63;;;;;;;-1.80;83.04;99777.31;5133355;28;20039;-93
2022/01/22 06:08:06;;;;;;;7.35;3.88;;;;;;;-1.98;83.59;99769.66;5133353;28;20069;-93
2022/01/22 06:10:33;;;;;;;6.22;3.50;;;;;;;-2.03;84.09;99774.72;5133458;28;20035;-91
2022/01/22 06:16:03;;;;;;;7.75;3.70;;;;;;;-2.18;84.23;99766.28;5048358;28;20389;-92
2022/01/22 06:18:29;;;;;;;9.27;4.65;;;;;;;-2.33;84.55;99753.53;5033160;28;20100;-92
2022/01/22 06:20:55;;;;;;;6.00;3.72;;;;;;;-2.33;84.76;99763.94;5032815;28;20403;-94
2022/01/22 06:23:21;;;;;;;10.50;4.18;;;;;;;-2.24;84.93;99785.16;5032052;28;20045;-92
2022/01/22 06:25:47;;;;;;;8.98;4.35;;;;;;;-2.43;85.77;99773.09;5032622;28;20042;-92
2022/01/22 06:28:12;;;;;;;6.65;3.85;;;;;;;-2.49;86.54;99778.97;5032141;28;20048;-93
2022/01/22 06:30:39;;;;;;;10.52;4.38;;;;;;;-2.49;88.49;99762.44;5032260;28;20392;-93
2022/01/22 06:33:09;;;;;;;8.70;4.30;;;;;;;-2.46;88.87;99769.50;5032399;28;20046;-93
2022/01/22 06:35:35;;;;;;;7.63;3.65;;;;;;;-2.47;89.20;99760.81;5032071;28;20587;-93
2022/01/22 06:38:03;;;;;;;11.73;4.80;;;;;;;-2.52;88.95;99757.09;5032187;28;20069;-92
2022/01/22 06:43:22;;;;;;;5.75;3.30;;;;;;;-2.48;88.96;99785.94;5166707;27;20363;-93
2022/01/22 06:45:48;;;;;;;7.15;3.72;;;;;;;-2.62;88.38;99768.00;5134104;27;20047;-93
2022/01/22 06:48:14;;;;;;;9.85;4.07;;;;;;;-2.65;87.91;99753.09;5133599;27;20460;-94
2022/01/22 06:50:40;;;;;;;8.20;3.95;;;;;;;-2.71;89.08;99737.22;5133819;27;20074;-95
2022/01/22 06:53:06;;;;;;;8.18;3.50;;;;;;;-2.49;88.30;99762.44;5133863;27;20047;-93
2022/01/22 06:55:41;;;;;;;8.73;3.90;;;;;;;-2.50;88.35;99765.88;5133646;27;20120;-93
2022/01/22 06:58:10;;;;;;;12.63;5.30;;;;;;;-2.52;86.56;99762.31;5133354;27;20039;-92
2022/01/22 07:00:38;;;;;;;10.32;4.65;;;;;;;-2.12;85.85;99800.41;5117289;27;20047;-91
2022/01/22 07:03:04;;;;;;;12.75;5.47;;;;;;;-2.36;85.32;99772.53;5129638;28;20130;-92
2022/01/22 07:05:33;;;;;;;11.77;4.85;;;;;;;-2.34;86.26;99760.47;5133760;27;20112;-93
2022/01/22 07:08:01;;;;;;;8.73;4.35;;;;;;;-2.01;85.22;99773.06;5133329;27;20116;-93
2022/01/22 07:10:27;;;;;;;8.65;4.43;;;;;;;-1.92;84.60;99788.16;5135000;27;20110;-95
2022/01/22 07:12:53;;;;;;;8.63;4.55;;;;;;;-1.99;85.16;99781.81;5134043;27;20062;-91
2022/01/22 07:15:20;;;;;;;10.38;4.20;;;;;;;-2.04;84.68;99765.09;5135545;27;20043;-93
2022/01/22 07:17:50;;;;;;;8.88;4.15;;;;;;;-1.98;84.39;99757.50;5132863;27;20045;-94
2022/01/22 07:20:26;;;;;;;7.85;4.15;;;;;;;-1.72;82.96;99766.34;5112965;28;20036;-95
2022/01/22 07:25:46;;;;;;;8.70;4.50;;;;;;;-1.21;81.14;99752.56;5168164;27;20367;-92
2022/01/22 07:28:12;;;;;;;9.50;4.88;;;;;;;-1.07;80.84;99761.75;5135252;27;20104;-93
2022/01/22 07:30:38;;;;;;;8.65;4.68;;;;;;;-0.97;79.91;99762.09;5134004;28;20046;-92
2022/01/22 07:33:04;;;;;;;12.27;5.30;;;;;;;-1.00;80.84;99755.03;5133832;28;20123;-91
2022/01/22 07:35:33;;;;;;;10.05;4.47;;;;;;;-1.02;81.56;99740.13;5134101;27;20456;-92
2022/01/22 07:37:59;;;;;;;;;;;;;;;-0.88;82.11;99751.97;5134053;27;20046;-93
2022/01/22 07:40:25;;;;;;;7.75;4.15;;;;;;;-1.02;81.97;99727.09;5134072;28;20010;-93
2022/01/22 07:42:53;;;;;;;7.97;4.35;;;;;;;-0.93;82.23;99730.00;5133874;27;20107;-91
2022/01/22 07:45:19;;;;;;;9.75;5.82;;;;;;;-0.87;81.55;99732.84;5134360;27;20036;-92
2022/01/22 07:47:45;;;;;;;10.55;5.53;;;;;;;-0.73;81.50;99738.53;5133841;27;20089;-93
2022/01/22 07:50:11;;;;;;;11.20;5.05;;;;;;;-0.66;81.17;99728.34;5133449;28;20039;-93
2022/01/22 07:52:37;;;;;;;10.13;4.40;;;;;;;-0.51;77.33;99734.91;5133263;27;20138;-92
2022/01/22 07:55:03;;;;;;;8.55;4.40;;;;;;;-0.33;75.94;99735.50;5133135;27;20039;-92
2022/01/22 07:57:29;;;;;;;8.38;4.68;;;;;;;-0.18;75.75;99747.28;5132828;27;20542;-92
2022/01/22 08:00:00;;;;;;;9.50;4.45;;;;;;;-0.07;75.76;99756.34;5133753;27;20044;-92
2022/01/22 08:02:27;;;;;;;11.27;4.78;;;;;;;0.11;74.07;99756.03;5133161;27;20484;-91
2022/01/22 08:04:53;;;;;;;10.27;4.70;;;;;;;0.15;73.56;99771.88;5132794;27;20126;-92
2022/01/22 08:07:21;;;;;;;9.32;5.35;;;;;;;0.20;73.08;99758.94;5132809;27;20074;-91
2022/01/22 08:09:48;;;;;;;11.23;5.30;;;;;;;0.11;72.97;99742.94;5132948;27;20036;-92
2022/01/22 08:12:17;;;;;;;12.95;5.65;;;;;;;0.22;72.91;99745.88;5132863;27;20044;-94
2022/01/22 08:14:43;;;;;;;;;;;;;;;0.51;73.15;99789.50;5133540;27;20043;-93
2022/01/22 08:17:11;;;;;;;12.73;5.82;;;;;;;0.60;72.19;99758.34;5132307;27;19941;-93
2022/01/22 08:19:40;;;;;;;10.65;5.78;;;;;;;0.77;72.71;99781.53;5133102;27;20045;-93
2022/01/22 08:22:06;;;;;;;14.13;6.10;;;;;;;0.64;72.24;99767.19;5133202;27;20043;-93
2022/01/22 08:24:33;;;;;;;10.32;5.45;;;;;;;0.30;73.21;99779.28;5134015;27;20053;-93
2022/01/22 08:29:59;;;;;;;10.57;5.78;;;;;;;0.45;73.34;99776.22;5113876;27;20872;-93
2022/01/22 08:38:13;;;;;;;11.25;6.00;;;;;;;0.68;72.09;99795.25;5093210;27;20732;-92
2022/01/22 08:40:40;;;;;;;13.55;6.00;;;;;;;0.66;71.79;99772.50;5092093;28;20127;-91
2022/01/22 08:43:06;;;;;;;11.38;6.00;;;;;;;0.86;72.22;99786.13;5092629;28;20463;-92
2022/01/22 08:45:32;;;;;;;10.05;5.22;;;;;;;1.12;71.16;99772.00;5092087;28;20044;-95
2022/01/22 08:47:57;;;;;;;10.98;5.35;;;;;;;1.49;70.99;99793.06;5091942;28;20128;-94
2022/01/22 08:50:24;;;;;;;9.75;5.47;;;;;;;1.70;69.47;99793.63;5092066;28;20048;-93
2022/01/22 08:52:50;;;;;;;11.27;5.88;;;;;;;1.80;69.80;99789.47;5092143;28;20103;-94
2022/01/22 08:55:18;;;;;;;11.35;5.82;;;;;;;1.79;69.17;99779.84;5092167;28;20036;-94
2022/01/22 08:57:49;;;;;;;14.63;6.68;;;;;;;1.76;66.14;99771.91;5092874;28;20032;-94
2022/01/22 09:00:16;;;;;;;20.23;7.78;;;;;;;1.94;66.46;99787.19;5093244;28;20040;-92
2022/01/22 09:02:44;;;;;;;14.65;6.32;;;;;;;2.13;66.35;99772.78;5092256;28;20048;-93
2022/01/22 09:05:10;;;;;;;14.77;6.28;;;;;;;2.47;65.34;99795.38;5092479;28;20403;-93
2022/01/22 09:07:36;;;;;;;18.50;6.70;;;;;;;2.59;64.49;99779.03;5093116;28;20355;-95
2022/01/22 09:10:03;;;;;;;11.10;5.68;;;;;;;2.75;63.72;99772.34;5092491;28;20048;-95
2022/01/22 09:12:32;;;;;;;10.68;5.68;;;;;;;2.94;64.01;99773.63;5092595;28;20048;-93
2022/01/22 09:14:58;;;;;;;10.70;5.90;;;;;;;2.95;64.55;99754.34;5095483;28;20044;-94
2022/01/22 09:17:24;;;;;;;13.63;6.45;;;;;;;3.15;64.62;99775.78;5092459;28;20395;-95
2022/01/22 09:19:56;;;;;;;15.02;6.18;;;;;;;3.08;64.57;99748.50;5092761;28;20162;-96
2022/01/22 09:22:25;;;;;;;13.20;6.93;;;;;;;3.31;63.32;99779.56;5093242;28;20048;-93
2022/01/22 09:24:52;;;;;;;15.80;7.55;;;;;;;3.43;62.83;99793.81;5092882;28;20107;-93
2022/01/22 09:27:19;;;;;;;12.77;6.50;;;;;;;3.52;62.17;99787.84;5092102;28;20033;-95
2022/01/22 09:29:47;;;;;;;13.90;7.05;;;;;;;3.49;62.49;99779.88;5092045;28;20040;-95
2022/01/22 09:32:13;;;;;;;14.00;8.20;;;;;;;3.73;62.37;99807.47;5091478;28;20071;-93
2022/01/22 09:34:40;;;;;;;13.70;6.65;;;;;;;3.67;62.33;99800.38;5091738;28;20040;-94
2022/01/22 09:37:06;;;;;;;11.98;6.30;;;;;;;3.49;61.92;99785.13;5091219;28;20059;-94
2022/01/22 09:39:32;;;;;;;10.65;6.38;;;;;;;3.57;62.38;99790.53;5091656;28;20048;-95
2022/01/22 09:41:58;;;;;;;13.43;7.38;;;;;;;3.81;62.10;99806.75;5092640;28;20049;-95
2022/01/22 09:44:24;;;;;;;14.35;6.90;;;;;;;3.74;61.62;99782.94;5093136;28;20040;-92
2022/01/22 09:46:53;;;;;;;14.18;6.20;;;;;;;3.85;62.11;99819.09;5092506;28;20050;-93
2022/01/22 09:49:20;;;;;;;10.33;6.90;;;;;;;3.78;60.79;99796.19;5079397;28;20094;-94
2022/01/22 09:51:45;;;;;;;12.25;6.95;;;;;;;4.00;61.35;99821.09;5078714;28;20444;-94
2022/01/22 09:54:13;;;;;;;13.48;7.13;;;;;;;4.12;61.28;99820.41;5078603;28;20041;-93
2022/01/22 09:56:41;;;;;;;13.95;6.90;;;;;;;4.24;60.91;99812.69;5078349;28;20052;-93
2022/01/22 09:59:10;;;;;;;14.48;7.20;;;;;;;4.18;60.23;99812.59;5077843;28;20041;-93
2022/01/22 10:01:36;;;;;;;15.65;7.00;;;;;;;4.11;60.80;99805.47;5078448;28;20066;-94
2022/01/22 10:04:05;;;;;;;11.02;6.63;;;;;;;4.30;60.46;99812.78;5079653;28;20045;-95
2022/01/22 10:06:32;;;;;;;;;;;;;;;4.35;59.71;99815.47;5078668;28;20047;-93
2022/01/22 10:09:13;;;;;;;11.85;6.57;;;;;;;4.28;60.10;99797.84;5078403;28;19986;-94
2022/01/22 10:11:39;;;;;;;17.88;6.78;;;;;;;4.37;59.62;99807.63;5058540;28;20044;-94
2022/01/22 10:14:06;;;;;;;13.20;7.18;;;;;;;4.43;59.82;99810.34;5057571;28;20171;-93
2022/01/22 10:16:34;;;;;;;17.83;7.10;;;;;;;4.48;59.64;99798.13;5057476;28;20075;-95
2022/01/22 10:19:15;;;;;;;13.07;7.75;;;;;;;4.72;58.88;99805.47;5057565;28;20056;-94
2022/01/22 10:21:43;;;;;;;11.95;6.65;;;;;;;4.67;58.44;99770.28;5057090;28;20123;-93
2022/01/22 10:24:22;;;;;;;11.15;7.00;;;;;;;4.66;58.32;99782.56;5056873;28;20041;-95
2022/01/22 10:27:24;;;;;;;14.70;6.82;;;;;;;4.33;58.21;99769.81;5057952;28;20133;-96
2022/01/22 10:29:53;;;;;;;12.75;6.82;;;;;;;4.52;57.98;99773.59;5057935;28;20495;-94
2022/01/22 10:32:21;;;;;;;14.90;6.70;;;;;;;4.68;57.86;99765.03;5057889;28;20037;-93
2022/01/22 10:35:01;;;;;;;11.48;6.63;;;;;;;4.93;57.57;99774.09;5057233;28;20037;-95
2022/01/22 10:37:35;;;;;;;13.70;6.45;;;;;;;5.07;57.22;99783.91;5056811;28;20041;-94
2022/01/22 10:40:18;;;;;;;12.73;7.18;;;;;;;5.18;56.64;99787.56;5057626;28;20072;-93
2022/01/22 10:42:44;;;;;;;16.00;8.20;;;;;;;5.17;57.04;99771.75;5057984;28;20044;-93
2022/01/22 10:45:14;;;;;;;13.75;7.28;;;;;;;5.28;56.08;99778.00;5057621;28;20079;-96
2022/01/22 10:47:40;;;;;;;17.42;7.90;;;;;;;5.29;55.54;99780.66;5057582;28;20091;-95
2022/01/22 10:50:19;;;;;;;14.77;7.78;;;;;;;5.18;55.79;99762.94;5056336;28;20041;-94
2022/01/22 10:52:50;;;;;;;14.30;7.70;;;;;;;5.21;56.38;99774.41;5056631;28;20384;-93
2022/01/22 10:55:18;;;;;;;10.27;6.85;;;;;;;5.06;56.74;99756.69;5056326;28;20602;-94
2022/01/22 10:58:06;;;;;;;13.82;7.45;;;;;;;5.27;56.42;99790.31;5056254;28;20049;-94
2022/01/22 11:00:33;;;;;;;14.15;6.88;;;;;;;5.22;56.85;99785.84;5055033;28;20095;-94
2022/01/22 11:03:20;;;;;;;10.88;7.38;;;;;;;5.08;56.22;99799.75;5056931;28;20099;-94
2022/01/22 11:05:48;;;;;;;10.73;6.95;;;;;;;5.05;57.01;99777.75;5056533;28;20132;-93
2022/01/22 11:08:14;;;;;;;13.15;7.15;;;;;;;5.11;56.74;99776.06;5055777;28;20116;-95
2022/01/22 11:10:45;;;;;;;12.55;6.70;;;;;;;5.12;55.74;99775.22;5056866;28;20167;-94
2022/01/22 11:13:11;;;;;;;11.30;5.90;;;;;;;5.16;54.75;99778.75;5056578;28;20128;-93
2022/01/22 11:15:40;;;;;;;10.07;6.05;;;;;;;5.14;54.91;99770.84;5056425;28;20073;-94
2022/01/22 11:18:09;;;;;;;12.03;5.80;;;;;;;4.98;55.11;99739.88;5056627;28;20033;-94
2022/01/22 11:20:40;;;;;;;11.98;5.85;;;;;;;5.15;55.00;99759.41;5057031;28;20282;-94
2022/01/22 11:23:08;;;;;;;8.73;5.35;;;;;;;5.28;53.71;99767.47;5056376;28;20048;-92
2022/01/22 11:25:35;;;;;;;9.93;5.73;;;;;;;5.23;53.63;99766.53;5056969;28;20045;-92
2022/01/22 11:28:02;;;;;;;10.48;5.45;;;;;;;5.39;51.45;99767.56;5055737;28;20274;-94
2022/01/22 11:30:29;;;;;;;11.27;5.88;;;;;;;5.52;51.31;99762.41;5056110;28;20037;-92
2022/01/22 11:33:00;;;;;;;19.10;5.57;;;;;;;5.43;50.67;99756.19;5056808;28;20041;-92
2022/01/22 11:35:36;;;;;;;9.68;5.18;;;;;;;5.22;51.69;99746.28;5056898;28;20037;-94
2022/01/22 11:38:10;;;;;;;9.52;5.45;;;;;;;5.28;53.07;99749.88;5055786;28;20044;-94
2022/01/22 11:40:37;;;;;;;8.70;5.20;;;;;;;5.40;52.04;99753.50;5056909;28;20052;-95
2022/01/22 11:43:07;;;;;;;8.63;5.45;;;;;;;5.35;51.51;99735.88;5055523;28;20486;-93
2022/01/22 11:45:36;;;;;;;10.85;5.63;;;;;;;5.50;52.10;99766.78;5055087;28;20139;-94
2022/01/22 11:48:14;;;;;;;10.80;5.13;;;;;;;5.37;51.66;99738.53;5056102;28;20037;-94
2022/01/22 11:50:41;;;;;;;9.30;5.15;;;;;;;5.42;50.95;99741.22;5055122;28;20080;-93
2022/01/22 11:53:29;;;;;;;8.55;5.25;;;;;;;5.36;50.91;99728.88;5055187;28;20048;-94
2022/01/22 11:56:25;;;;;;;9.87;5.30;;;;;;;5.50;51.54;99745.69;5055095;28;20049;-92
2022/01/22 11:59:23;;;;;;;8.50;4.90;;;;;;;5.49;50.69;99746.56;5055847;28;20063;-93
2022/01/22 12:01:51;;;;;;;11.23;5.10;;;;;;;5.40;50.63;99733.31;5050297;28;20059;-93
2022/01/22 12:04:19;;;;;;;7.68;5.15;;;;;;;5.42;50.24;99735.94;5054972;28;20041;-94
2022/01/22 12:07:10;;;;;;;10.30;5.20;;;;;;;5.48;50.18;99726.31;5054981;28;20120;-94
2022/01/22 12:09:52;;;;;;;8.18;4.47;;;;;;;5.62;50.19;99713.25;5034815;28;20115;-94
2022/01/22 12:15:49;;;;;;;8.95;4.82;;;;;;;5.73;51.33;99727.41;5106039;27;20384;-95
2022/01/22 12:18:17;;;;;;;9.23;4.82;;;;;;;5.58;50.67;99708.81;5073121;28;20430;-95
2022/01/22 12:23:53;;;;;;;8.57;5.00;;;;;;;5.53;51.31;99689.41;5134509;27;20375;-94
2022/01/22 12:26:47;;;;;;;10.77;4.57;;;;;;;5.66;51.74;99711.50;5135080;27;20043;-95
2022/01/22 12:29:40;;;;;;;9.88;5.03;;;;;;;5.75;51.66;99722.16;5133824;27;20196;-94
2022/01/22 12:32:25;;;;;;;10.30;4.30;;;;;;;5.62;53.08;99680.72;5129963;27;20492;-95
2022/01/22 12:35:07;;;;;;;8.63;4.25;;;;;;;5.70;52.28;99689.56;5113827;28;20379;-94
2022/01/22 12:37:37;;;;;;;9.50;4.43;;;;;;;5.70;51.61;99684.28;5113454;28;20105;-94
2022/01/22 12:40:09;;;;;;;7.65;4.88;;;;;;;5.82;51.48;99692.28;5112940;28;20134;-94
2022/01/22 12:43:06;;;;;;;8.95;4.85;;;;;;;5.96;52.28;99711.78;5112781;28;20493;-95
2022/01/22 12:45:36;;;;;;;9.30;4.50;;;;;;;5.89;51.57;99702.00;5100658;28;20405;-92
2022/01/22 12:48:03;;;;;;;7.95;4.53;;;;;;;5.86;51.17;99669.44;5120099;27;20560;-93
2022/01/22 12:50:32;;;;;;;9.18;5.07;;;;;;;5.87;49.74;99692.31;5133196;27;20088;-94
2022/01/22 12:53:03;;;;;;;9.48;5.18;;;;;;;5.95;50.65;99691.53;5134547;27;20043;-91
2022/01/22 12:58:25;;;;;;;7.85;5.05;;;;;;;5.93;50.79;99674.75;5133088;28;20501;-93
2022/01/22 13:00:53;;;;;;;10.07;5.30;;;;;;;5.92;51.41;99670.38;5132515;27;20036;-92
2022/01/22 13:03:32;;;;;;;9.88;6.18;;;;;;;5.98;50.90;99666.91;5124005;28;20098;-92
2022/01/22 13:05:58;;;;;;;12.25;6.25;;;;;;;6.02;50.53;99673.97;5115854;28;20495;-92
2022/01/22 13:08:27;;;;;;;10.07;6.13;;;;;;;5.99;52.04;99647.56;5130091;27;20088;-93
2022/01/22 13:11:02;;;;;;;10.23;6.50;;;;;;;6.05;50.17;99651.97;5126954;27;20087;-91
2022/01/22 13:13:31;;;;;;;10.88;7.10;;;;;;;5.98;50.77;99648.41;5130236;27;20130;-94
2022/01/22 13:16:03;;;;;;;15.27;7.43;;;;;;;6.00;50.62;99648.44;5121557;27;20039;-95
2022/01/22 13:18:43;;;;;;;14.77;6.55;;;;;;;6.08;49.80;99662.56;5154240;27;20039;-92
2022/01/22 13:21:10;;;;;;;12.18;6.60;;;;;;;6.17;50.13;99673.16;5141735;27;20043;-92
2022/01/22 13:23:37;;;;;;;11.18;5.75;;;;;;;6.10;50.18;99661.69;5132168;27;20043;-93
2022/01/22 13:26:04;;;;;;;22.50;9.98;;;;;;;6.03;49.66;99638.78;5120591;27;20057;-93
2022/01/22 13:28:33;;;;;;;23.60;9.18;;;;;;;6.05;49.99;99642.31;5131634;27;20043;-95
2022/01/22 13:31:05;;;;;;;17.05;8.07;;;;;;;6.14;49.27;99652.03;5123853;27;20081;-94
2022/01/22 13:36:45;;;;;;;11.68;6.25;;;;;;;6.31;48.06;99645.06;5106629;27;20384;-92
2022/01/22 13:48:26;;;;;;;8.45;5.32;;;;;;;6.23;47.18;99614.22;5150652;27;20374;-94
2022/01/22 13:50:53;;;;;;;11.30;5.68;;;;;;;6.34;47.79;99638.91;5133063;28;20047;-93
2022/01/22 13:53:19;;;;;;;8.95;4.75;;;;;;;6.31;47.52;99625.69;5134406;28;20047;-92
2022/01/22 13:55:56;;;;;;;14.05;7.68;;;;;;;6.40;48.67;99638.94;5133981;28;20043;-95
2022/01/22 13:58:22;;;;;;;12.45;6.30;;;;;;;6.34;48.19;99626.59;5133780;28;20101;-92
2022/01/22 14:00:51;;;;;;;12.38;5.03;;;;;;;6.27;47.91;99619.53;5132802;28;20485;-94
2022/01/22 14:03:21;;;;;;;;;;;;;;;6.50;47.17;99651.28;5134120;28;20043;-94
2022/01/22 14:05:52;;;;;;;9.57;5.20;;;;;;;6.37;47.75;99631.00;5134241;28;19945;-93
2022/01/22 14:08:33;;;;;;;10.13;5.65;;;;;;;6.20;48.34;99601.88;5135758;28;20042;-93
2022/01/22 14:11:03;;;;;;;8.05;5.40;;;;;;;6.41;48.57;99637.19;5134627;28;20061;-94
2022/01/22 14:13:30;;;;;;;12.85;5.22;;;;;;;6.23;47.80;99617.75;5133488;28;20047;-93
2022/01/22 14:15:56;;;;;;;12.43;5.85;;;;;;;6.26;48.31;99643.28;5133713;28;20384;-92